Gobles, MI

12:42 PM EDT on June 23, 2017 (GMT -0400)
Earl Cemetery | | Change Station

Elev 860 ft 42.40 °N, 85.82 °W | Updated 3 seconds ago

Overcast
Overcast
72.5 °F
Feels Like 72.5 °F
N
0.0
Wind Variable Wind from South

Today
High -- | Low -- °F
--% Chance of Precip.
Yesterday
High -- | Low -- °F
Precip. -- in
Pressure 29.62 in
Visibility 10.0 miles
Clouds Mostly Cloudy 1000 ft
Overcast 1500 ft
Dew Point 70 °F
Humidity 93%
Rainfall 0.38 in
Snow Depth Not available.
6:07 AM 9:24 PM
Waning Crescent, 0% visible
METAR KAZO 231553Z 27008KT 10SM BKN010 OVC015 22/18 A2964 RMK AO2 RAB07E40 CIG 007V013 SLP031 P0000 T02170183
Pressure 29.62 in
Visibility 10.0 miles
Clouds Mostly Cloudy 1000 ft
Overcast 1500 ft
Dew Point 70 °F
Humidity 93%
Rainfall 0.38 in
Snow Depth Not available.
6:07 AM 9:24 PM
Waning Crescent, 0% visible
METAR KAZO 231553Z 27008KT 10SM BKN010 OVC015 22/18 A2964 RMK AO2 RAB07E40 CIG 007V013 SLP031 P0000 T02170183

Get Severe Weather Alerts

Thanks for signing up!

Be on the lookout for a verification email in your inbox.

You'll start receiving the daily forecast at 6 AM.

×

10-Day Weather Forecast

Almanac

Astronomy

Jun. 23, 2017 Rise Set
Actual Time
Civil Twilight
Nautical Twilight
Astronomical Twilight
Moon
Length of Visible Light
Length of Day
Tomorrow will be .
, % of the Moon is Illuminated

Today's Extremes

State Highs State Lows

Community

WunderPhotos

Category 6

Welcome to Category 6. This is the collective home for Weather Underground's featured writeups by Dr. Jeff Masters (right), Bob Henson (left), Chris Burt, and other regular contributors.

Nearby

Air Quality

  Air Quality AQ Index Pollutant
Not available.

Snow Depth

Station Depth Elevation

Earthquake Activity

City Distance Mag. Time & Date
Minimum magnitude displayed is 2.5.

Coastal Water Temperatures

Place Temperature

Stations

Nearby Weather Stations

Station Location Temp. Windchill Dew Point Humidity Wind Precip. Elev Updated Type
                   

Watches & Warnings

There are currently no watches in effect.